sensor_id;sensor_type;location;lat;lon;timestamp;P1;durP1;ratioP1;P2;durP2;ratioP2
25922;SDS011;13725;51.170;4.442;2023-12-07T00:02:08;99.18;;;17.02;;
25922;SDS011;13725;51.170;4.442;2023-12-07T00:04:35;117.65;;;17.35;;
25922;SDS011;13725;51.170;4.442;2023-12-07T00:07:01;103.25;;;17.80;;
25922;SDS011;13725;51.170;4.442;2023-12-07T00:09:27;80.03;;;16.30;;
25922;SDS011;13725;51.170;4.442;2023-12-07T00:11:52;90.22;;;16.42;;
25922;SDS011;13725;51.170;4.442;2023-12-07T00:14:18;105.03;;;18.35;;
25922;SDS011;13725;51.170;4.442;2023-12-07T00:16:44;117.30;;;17.08;;
25922;SDS011;13725;51.170;4.442;2023-12-07T00:19:10;68.72;;;16.50;;
25922;SDS011;13725;51.170;4.442;2023-12-07T00:21:35;69.82;;;16.05;;
25922;SDS011;13725;51.170;4.442;2023-12-07T00:24:01;103.03;;;16.70;;
25922;SDS011;13725;51.170;4.442;2023-12-07T00:26:27;118.13;;;18.98;;
25922;SDS011;13725;51.170;4.442;2023-12-07T00:28:53;124.45;;;16.33;;
25922;SDS011;13725;51.170;4.442;2023-12-07T00:31:19;126.68;;;17.20;;
25922;SDS011;13725;51.170;4.442;2023-12-07T00:33:45;121.20;;;16.48;;
25922;SDS011;13725;51.170;4.442;2023-12-07T00:36:11;137.30;;;17.42;;
25922;SDS011;13725;51.170;4.442;2023-12-07T00:38:37;119.00;;;16.25;;
25922;SDS011;13725;51.170;4.442;2023-12-07T00:41:03;122.15;;;17.40;;
25922;SDS011;13725;51.170;4.442;2023-12-07T00:47:17;106.97;;;16.67;;
25922;SDS011;13725;51.170;4.442;2023-12-07T00:49:44;148.60;;;18.33;;
25922;SDS011;13725;51.170;4.442;2023-12-07T00:52:09;111.93;;;18.27;;
25922;SDS011;13725;51.170;4.442;2023-12-07T00:54:35;155.65;;;18.15;;
25922;SDS011;13725;51.170;4.442;2023-12-07T00:57:01;155.65;;;19.45;;
25922;SDS011;13725;51.170;4.442;2023-12-07T00:59:27;194.07;;;23.45;;
25922;SDS011;13725;51.170;4.442;2023-12-07T01:01:59;174.63;;;21.27;;
25922;SDS011;13725;51.170;4.442;2023-12-07T01:04:27;127.00;;;18.85;;
25922;SDS011;13725;51.170;4.442;2023-12-07T01:06:55;137.25;;;18.90;;
25922;SDS011;13725;51.170;4.442;2023-12-07T01:09:21;180.40;;;19.52;;
25922;SDS011;13725;51.170;4.442;2023-12-07T01:11:48;133.88;;;19.63;;
25922;SDS011;13725;51.170;4.442;2023-12-07T01:14:15;140.63;;;19.38;;
25922;SDS011;13725;51.170;4.442;2023-12-07T01:16:41;176.90;;;22.35;;
25922;SDS011;13725;51.170;4.442;2023-12-07T01:19:07;167.77;;;21.95;;
25922;SDS011;13725;51.170;4.442;2023-12-07T01:21:33;158.82;;;22.08;;
25922;SDS011;13725;51.170;4.442;2023-12-07T01:23:59;134.68;;;21.92;;
25922;SDS011;13725;51.170;4.442;2023-12-07T01:26:26;110.95;;;22.30;;
25922;SDS011;13725;51.170;4.442;2023-12-07T01:28:52;91.05;;;20.35;;
25922;SDS011;13725;51.170;4.442;2023-12-07T01:31:18;123.15;;;22.05;;
25922;SDS011;13725;51.170;4.442;2023-12-07T01:33:44;129.88;;;23.42;;
25922;SDS011;13725;51.170;4.442;2023-12-07T01:36:10;138.60;;;25.50;;
25922;SDS011;13725;51.170;4.442;2023-12-07T01:38:37;127.45;;;28.40;;
25922;SDS011;13725;51.170;4.442;2023-12-07T01:41:02;122.63;;;25.40;;
25922;SDS011;13725;51.170;4.442;2023-12-07T01:43:29;106.68;;;25.23;;
25922;SDS011;13725;51.170;4.442;2023-12-07T01:45:56;108.88;;;25.80;;
25922;SDS011;13725;51.170;4.442;2023-12-07T01:48:23;132.77;;;26.50;;
25922;SDS011;13725;51.170;4.442;2023-12-07T01:50:53;97.90;;;24.58;;
25922;SDS011;13725;51.170;4.442;2023-12-07T01:53:21;135.15;;;26.45;;
25922;SDS011;13725;51.170;4.442;2023-12-07T01:55:48;112.43;;;24.85;;
25922;SDS011;13725;51.170;4.442;2023-12-07T01:58:16;116.88;;;26.92;;
25922;SDS011;13725;51.170;4.442;2023-12-07T02:00:46;119.80;;;23.90;;
25922;SDS011;13725;51.170;4.442;2023-12-07T02:03:13;125.03;;;24.92;;
25922;SDS011;13725;51.170;4.442;2023-12-07T02:05:42;104.07;;;23.73;;
25922;SDS011;13725;51.170;4.442;2023-12-07T02:08:11;119.07;;;25.88;;
25922;SDS011;13725;51.170;4.442;2023-12-07T02:10:37;99.57;;;23.45;;
25922;SDS011;13725;51.170;4.442;2023-12-07T02:13:04;101.95;;;23.27;;
25922;SDS011;13725;51.170;4.442;2023-12-07T02:15:31;87.07;;;22.75;;
25922;SDS011;13725;51.170;4.442;2023-12-07T02:20:54;85.68;;;22.92;;
25922;SDS011;13725;51.170;4.442;2023-12-07T02:23:39;99.68;;;24.17;;
25922;SDS011;13725;51.170;4.442;2023-12-07T02:26:07;93.05;;;23.60;;
25922;SDS011;13725;51.170;4.442;2023-12-07T02:28:35;102.85;;;23.20;;
25922;SDS011;13725;51.170;4.442;2023-12-07T02:31:01;75.18;;;20.58;;
25922;SDS011;13725;51.170;4.442;2023-12-07T02:33:27;85.53;;;21.85;;
25922;SDS011;13725;51.170;4.442;2023-12-07T02:35:53;89.63;;;21.77;;
25922;SDS011;13725;51.170;4.442;2023-12-07T02:38:19;78.00;;;20.10;;
25922;SDS011;13725;51.170;4.442;2023-12-07T02:40:48;71.65;;;20.75;;
25922;SDS011;13725;51.170;4.442;2023-12-07T02:43:14;77.97;;;20.95;;
25922;SDS011;13725;51.170;4.442;2023-12-07T02:45:40;83.40;;;22.65;;
25922;SDS011;13725;51.170;4.442;2023-12-07T02:48:07;77.82;;;21.63;;
25922;SDS011;13725;51.170;4.442;2023-12-07T02:50:32;85.80;;;22.13;;
25922;SDS011;13725;51.170;4.442;2023-12-07T02:52:58;83.38;;;21.27;;
25922;SDS011;13725;51.170;4.442;2023-12-07T02:55:24;85.50;;;22.70;;
25922;SDS011;13725;51.170;4.442;2023-12-07T02:57:51;77.72;;;21.33;;
25922;SDS011;13725;51.170;4.442;2023-12-07T03:00:16;81.75;;;22.05;;
25922;SDS011;13725;51.170;4.442;2023-12-07T03:02:42;93.30;;;23.42;;
25922;SDS011;13725;51.170;4.442;2023-12-07T03:05:08;86.60;;;22.70;;
25922;SDS011;13725;51.170;4.442;2023-12-07T03:07:35;86.88;;;22.58;;
25922;SDS011;13725;51.170;4.442;2023-12-07T03:10:01;82.85;;;22.17;;
25922;SDS011;13725;51.170;4.442;2023-12-07T03:12:28;89.25;;;22.55;;
25922;SDS011;13725;51.170;4.442;2023-12-07T03:14:53;95.55;;;25.45;;
25922;SDS011;13725;51.170;4.442;2023-12-07T03:17:19;101.72;;;22.85;;
25922;SDS011;13725;51.170;4.442;2023-12-07T03:19:45;89.85;;;22.52;;
25922;SDS011;13725;51.170;4.442;2023-12-07T03:22:11;72.53;;;20.73;;
25922;SDS011;13725;51.170;4.442;2023-12-07T03:24:45;85.85;;;21.58;;
25922;SDS011;13725;51.170;4.442;2023-12-07T03:27:16;88.72;;;21.73;;
25922;SDS011;13725;51.170;4.442;2023-12-07T03:29:43;78.68;;;21.25;;
25922;SDS011;13725;51.170;4.442;2023-12-07T03:32:09;71.38;;;21.73;;
25922;SDS011;13725;51.170;4.442;2023-12-07T03:34:35;80.10;;;21.70;;
25922;SDS011;13725;51.170;4.442;2023-12-07T03:37:01;73.63;;;20.48;;
25922;SDS011;13725;51.170;4.442;2023-12-07T03:39:28;83.65;;;20.17;;
25922;SDS011;13725;51.170;4.442;2023-12-07T03:41:54;72.32;;;20.25;;
25922;SDS011;13725;51.170;4.442;2023-12-07T03:44:20;68.47;;;19.50;;
25922;SDS011;13725;51.170;4.442;2023-12-07T03:52:53;67.30;;;17.77;;
25922;SDS011;13725;51.170;4.442;2023-12-07T03:55:19;71.53;;;19.92;;
25922;SDS011;13725;51.170;4.442;2023-12-07T03:57:45;75.20;;;20.98;;
25922;SDS011;13725;51.170;4.442;2023-12-07T04:00:12;69.60;;;19.90;;
25922;SDS011;13725;51.170;4.442;2023-12-07T04:02:38;73.15;;;18.70;;
25922;SDS011;13725;51.170;4.442;2023-12-07T04:05:04;65.38;;;19.63;;
25922;SDS011;13725;51.170;4.442;2023-12-07T04:07:30;72.45;;;18.48;;
25922;SDS011;13725;51.170;4.442;2023-12-07T04:09:55;69.20;;;19.35;;
25922;SDS011;13725;51.170;4.442;2023-12-07T04:12:24;67.40;;;18.08;;
25922;SDS011;13725;51.170;4.442;2023-12-07T04:14:50;65.60;;;18.05;;
25922;SDS011;13725;51.170;4.442;2023-12-07T04:17:17;64.20;;;17.73;;
25922;SDS011;13725;51.170;4.442;2023-12-07T04:19:43;65.78;;;19.02;;
25922;SDS011;13725;51.170;4.442;2023-12-07T04:22:09;58.67;;;19.02;;
25922;SDS011;13725;51.170;4.442;2023-12-07T04:24:34;74.88;;;20.08;;
25922;SDS011;13725;51.170;4.442;2023-12-07T04:27:01;71.35;;;18.83;;
25922;SDS011;13725;51.170;4.442;2023-12-07T04:29:27;68.45;;;19.48;;
25922;SDS011;13725;51.170;4.442;2023-12-07T04:31:53;61.92;;;17.90;;
25922;SDS011;13725;51.170;4.442;2023-12-07T04:34:18;59.80;;;19.20;;
25922;SDS011;13725;51.170;4.442;2023-12-07T04:36:44;65.72;;;19.17;;
25922;SDS011;13725;51.170;4.442;2023-12-07T04:39:10;59.85;;;20.05;;
25922;SDS011;13725;51.170;4.442;2023-12-07T04:41:36;64.15;;;19.67;;
25922;SDS011;13725;51.170;4.442;2023-12-07T04:44:01;61.63;;;19.35;;
25922;SDS011;13725;51.170;4.442;2023-12-07T04:46:27;62.83;;;19.40;;
25922;SDS011;13725;51.170;4.442;2023-12-07T04:48:54;58.83;;;19.73;;
25922;SDS011;13725;51.170;4.442;2023-12-07T04:51:19;63.25;;;19.05;;
25922;SDS011;13725;51.170;4.442;2023-12-07T04:53:46;51.63;;;16.85;;
25922;SDS011;13725;51.170;4.442;2023-12-07T04:56:12;46.63;;;17.02;;
25922;SDS011;13725;51.170;4.442;2023-12-07T04:58:38;48.85;;;17.42;;
25922;SDS011;13725;51.170;4.442;2023-12-07T05:01:04;48.17;;;16.48;;
25922;SDS011;13725;51.170;4.442;2023-12-07T05:03:30;46.25;;;16.70;;
25922;SDS011;13725;51.170;4.442;2023-12-07T05:05:57;49.88;;;17.52;;
25922;SDS011;13725;51.170;4.442;2023-12-07T05:08:23;50.33;;;17.67;;
25922;SDS011;13725;51.170;4.442;2023-12-07T05:10:48;51.78;;;16.88;;
25922;SDS011;13725;51.170;4.442;2023-12-07T05:13:14;64.72;;;19.48;;
25922;SDS011;13725;51.170;4.442;2023-12-07T05:15:41;51.30;;;18.35;;
25922;SDS011;13725;51.170;4.442;2023-12-07T05:18:07;56.35;;;19.05;;
25922;SDS011;13725;51.170;4.442;2023-12-07T05:20:33;50.78;;;16.77;;
25922;SDS011;13725;51.170;4.442;2023-12-07T05:22:59;52.55;;;17.45;;
25922;SDS011;13725;51.170;4.442;2023-12-07T05:25:27;48.42;;;16.60;;
25922;SDS011;13725;51.170;4.442;2023-12-07T05:27:54;55.78;;;19.20;;
25922;SDS011;13725;51.170;4.442;2023-12-07T05:30:19;56.17;;;19.60;;
25922;SDS011;13725;51.170;4.442;2023-12-07T05:32:46;52.67;;;17.40;;
25922;SDS011;13725;51.170;4.442;2023-12-07T05:35:12;46.92;;;16.27;;
25922;SDS011;13725;51.170;4.442;2023-12-07T05:37:38;51.70;;;15.95;;
25922;SDS011;13725;51.170;4.442;2023-12-07T05:40:03;57.05;;;17.85;;
25922;SDS011;13725;51.170;4.442;2023-12-07T05:42:32;55.33;;;18.23;;
25922;SDS011;13725;51.170;4.442;2023-12-07T05:44:57;49.15;;;16.13;;
25922;SDS011;13725;51.170;4.442;2023-12-07T05:47:24;43.45;;;14.18;;
25922;SDS011;13725;51.170;4.442;2023-12-07T05:49:52;49.40;;;15.27;;
25922;SDS011;13725;51.170;4.442;2023-12-07T05:52:17;40.92;;;15.40;;
25922;SDS011;13725;51.170;4.442;2023-12-07T05:54:43;42.22;;;14.98;;
25922;SDS011;13725;51.170;4.442;2023-12-07T05:57:12;52.55;;;17.10;;
25922;SDS011;13725;51.170;4.442;2023-12-07T05:59:39;42.25;;;15.77;;
25922;SDS011;13725;51.170;4.442;2023-12-07T06:02:07;42.45;;;16.30;;
25922;SDS011;13725;51.170;4.442;2023-12-07T06:04:34;47.88;;;16.98;;
25922;SDS011;13725;51.170;4.442;2023-12-07T06:06:59;46.92;;;17.20;;
25922;SDS011;13725;51.170;4.442;2023-12-07T06:09:26;45.03;;;16.17;;
25922;SDS011;13725;51.170;4.442;2023-12-07T06:11:53;42.63;;;16.08;;
25922;SDS011;13725;51.170;4.442;2023-12-07T06:14:18;51.08;;;16.95;;
25922;SDS011;13725;51.170;4.442;2023-12-07T06:16:44;42.78;;;16.20;;
25922;SDS011;13725;51.170;4.442;2023-12-07T06:19:10;42.05;;;14.85;;
25922;SDS011;13725;51.170;4.442;2023-12-07T06:21:35;37.13;;;15.13;;
25922;SDS011;13725;51.170;4.442;2023-12-07T06:24:01;37.55;;;13.25;;
25922;SDS011;13725;51.170;4.442;2023-12-07T06:26:28;39.30;;;15.50;;
25922;SDS011;13725;51.170;4.442;2023-12-07T06:28:53;37.63;;;14.85;;
25922;SDS011;13725;51.170;4.442;2023-12-07T06:31:19;34.90;;;14.70;;
25922;SDS011;13725;51.170;4.442;2023-12-07T06:33:47;35.70;;;14.98;;
25922;SDS011;13725;51.170;4.442;2023-12-07T06:36:19;36.42;;;15.07;;
25922;SDS011;13725;51.170;4.442;2023-12-07T06:38:48;41.17;;;14.27;;
25922;SDS011;13725;51.170;4.442;2023-12-07T06:41:14;33.95;;;13.38;;
25922;SDS011;13725;51.170;4.442;2023-12-07T06:43:41;32.20;;;14.75;;
25922;SDS011;13725;51.170;4.442;2023-12-07T06:49:57;46.03;;;15.43;;
25922;SDS011;13725;51.170;4.442;2023-12-07T06:52:26;36.75;;;15.75;;
25922;SDS011;13725;51.170;4.442;2023-12-07T06:54:51;42.05;;;15.63;;
25922;SDS011;13725;51.170;4.442;2023-12-07T06:57:18;42.00;;;17.27;;
25922;SDS011;13725;51.170;4.442;2023-12-07T06:59:44;41.20;;;16.33;;
25922;SDS011;13725;51.170;4.442;2023-12-07T07:02:10;42.13;;;17.25;;
25922;SDS011;13725;51.170;4.442;2023-12-07T07:04:35;40.30;;;16.60;;
25922;SDS011;13725;51.170;4.442;2023-12-07T07:07:01;37.83;;;17.40;;
25922;SDS011;13725;51.170;4.442;2023-12-07T07:09:27;44.05;;;16.52;;
25922;SDS011;13725;51.170;4.442;2023-12-07T07:11:53;40.20;;;16.63;;
25922;SDS011;13725;51.170;4.442;2023-12-07T07:14:18;44.40;;;17.75;;
25922;SDS011;13725;51.170;4.442;2023-12-07T07:16:44;46.25;;;18.13;;
25922;SDS011;13725;51.170;4.442;2023-12-07T07:19:10;41.13;;;16.63;;
25922;SDS011;13725;51.170;4.442;2023-12-07T07:21:36;38.83;;;16.50;;
25922;SDS011;13725;51.170;4.442;2023-12-07T07:24:02;43.13;;;17.00;;
25922;SDS011;13725;51.170;4.442;2023-12-07T07:26:28;43.97;;;16.80;;
25922;SDS011;13725;51.170;4.442;2023-12-07T07:28:53;45.20;;;16.90;;
25922;SDS011;13725;51.170;4.442;2023-12-07T07:31:21;37.10;;;16.02;;
25922;SDS011;13725;51.170;4.442;2023-12-07T07:33:47;41.75;;;15.77;;
25922;SDS011;13725;51.170;4.442;2023-12-07T07:36:13;40.65;;;16.23;;
25922;SDS011;13725;51.170;4.442;2023-12-07T07:38:42;39.38;;;17.23;;
25922;SDS011;13725;51.170;4.442;2023-12-07T07:41:09;40.55;;;16.63;;
25922;SDS011;13725;51.170;4.442;2023-12-07T07:43:42;40.10;;;17.83;;
25922;SDS011;13725;51.170;4.442;2023-12-07T07:46:08;45.53;;;15.32;;
25922;SDS011;13725;51.170;4.442;2023-12-07T07:48:34;41.78;;;16.25;;
25922;SDS011;13725;51.170;4.442;2023-12-07T07:50:59;43.80;;;16.38;;
25922;SDS011;13725;51.170;4.442;2023-12-07T07:53:25;40.78;;;16.65;;
25922;SDS011;13725;51.170;4.442;2023-12-07T07:55:51;39.25;;;16.63;;
25922;SDS011;13725;51.170;4.442;2023-12-07T07:58:17;37.33;;;15.20;;
25922;SDS011;13725;51.170;4.442;2023-12-07T08:00:42;34.22;;;15.15;;
25922;SDS011;13725;51.170;4.442;2023-12-07T08:03:09;38.67;;;15.25;;
25922;SDS011;13725;51.170;4.442;2023-12-07T08:05:35;34.75;;;14.55;;
25922;SDS011;13725;51.170;4.442;2023-12-07T08:08:01;36.65;;;16.17;;
25922;SDS011;13725;51.170;4.442;2023-12-07T08:10:27;35.60;;;15.32;;
25922;SDS011;13725;51.170;4.442;2023-12-07T08:12:52;33.33;;;13.60;;
25922;SDS011;13725;51.170;4.442;2023-12-07T08:15:24;35.00;;;15.15;;
25922;SDS011;13725;51.170;4.442;2023-12-07T08:17:54;31.73;;;14.10;;
25922;SDS011;13725;51.170;4.442;2023-12-07T08:20:21;34.55;;;14.02;;
25922;SDS011;13725;51.170;4.442;2023-12-07T08:22:48;33.13;;;14.10;;
25922;SDS011;13725;51.170;4.442;2023-12-07T08:25:16;29.50;;;13.95;;
25922;SDS011;13725;51.170;4.442;2023-12-07T08:27:42;28.77;;;12.63;;
25922;SDS011;13725;51.170;4.442;2023-12-07T08:30:12;37.13;;;13.00;;
25922;SDS011;13725;51.170;4.442;2023-12-07T08:32:38;32.45;;;13.02;;
25922;SDS011;13725;51.170;4.442;2023-12-07T08:35:05;30.33;;;12.75;;
25922;SDS011;13725;51.170;4.442;2023-12-07T08:37:31;31.27;;;12.63;;
25922;SDS011;13725;51.170;4.442;2023-12-07T08:39:59;24.42;;;12.02;;
25922;SDS011;13725;51.170;4.442;2023-12-07T08:42:26;25.80;;;11.80;;
25922;SDS011;13725;51.170;4.442;2023-12-07T08:44:53;25.08;;;11.50;;
25922;SDS011;13725;51.170;4.442;2023-12-07T08:47:19;27.65;;;12.98;;
25922;SDS011;13725;51.170;4.442;2023-12-07T08:49:46;25.85;;;12.02;;
25922;SDS011;13725;51.170;4.442;2023-12-07T08:52:12;30.48;;;12.75;;
25922;SDS011;13725;51.170;4.442;2023-12-07T08:54:38;26.13;;;11.90;;
25922;SDS011;13725;51.170;4.442;2023-12-07T08:57:04;24.17;;;11.60;;
25922;SDS011;13725;51.170;4.442;2023-12-07T08:59:29;26.63;;;13.10;;
25922;SDS011;13725;51.170;4.442;2023-12-07T09:01:57;22.85;;;11.70;;
25922;SDS011;13725;51.170;4.442;2023-12-07T09:04:23;23.98;;;11.45;;
25922;SDS011;13725;51.170;4.442;2023-12-07T09:06:48;20.70;;;10.27;;
25922;SDS011;13725;51.170;4.442;2023-12-07T09:09:20;17.70;;;9.23;;
25922;SDS011;13725;51.170;4.442;2023-12-07T09:11:48;20.05;;;10.60;;
25922;SDS011;13725;51.170;4.442;2023-12-07T09:14:14;21.23;;;9.50;;
25922;SDS011;13725;51.170;4.442;2023-12-07T09:16:47;17.95;;;9.80;;
25922;SDS011;13725;51.170;4.442;2023-12-07T09:19:14;22.20;;;9.55;;
25922;SDS011;13725;51.170;4.442;2023-12-07T09:21:40;19.50;;;10.20;;
25922;SDS011;13725;51.170;4.442;2023-12-07T09:24:06;19.70;;;10.13;;
25922;SDS011;13725;51.170;4.442;2023-12-07T09:26:32;21.42;;;9.70;;
25922;SDS011;13725;51.170;4.442;2023-12-07T09:28:58;24.13;;;9.88;;
25922;SDS011;13725;51.170;4.442;2023-12-07T09:31:25;23.60;;;10.10;;
25922;SDS011;13725;51.170;4.442;2023-12-07T09:33:52;21.98;;;9.48;;
25922;SDS011;13725;51.170;4.442;2023-12-07T09:36:18;21.05;;;11.07;;
25922;SDS011;13725;51.170;4.442;2023-12-07T09:38:46;26.25;;;10.50;;
25922;SDS011;13725;51.170;4.442;2023-12-07T09:41:12;21.38;;;9.80;;
25922;SDS011;13725;51.170;4.442;2023-12-07T09:43:40;24.80;;;10.20;;
25922;SDS011;13725;51.170;4.442;2023-12-07T09:49:41;23.73;;;10.00;;
25922;SDS011;13725;51.170;4.442;2023-12-07T09:52:07;26.77;;;10.65;;
25922;SDS011;13725;51.170;4.442;2023-12-07T09:54:39;18.50;;;9.40;;
25922;SDS011;13725;51.170;4.442;2023-12-07T09:57:08;23.85;;;10.05;;
25922;SDS011;13725;51.170;4.442;2023-12-07T09:59:36;21.80;;;10.95;;
25922;SDS011;13725;51.170;4.442;2023-12-07T10:02:02;24.08;;;10.60;;
25922;SDS011;13725;51.170;4.442;2023-12-07T10:04:28;19.77;;;10.45;;
25922;SDS011;13725;51.170;4.442;2023-12-07T10:06:54;24.23;;;10.98;;
25922;SDS011;13725;51.170;4.442;2023-12-07T10:09:23;20.20;;;9.80;;
25922;SDS011;13725;51.170;4.442;2023-12-07T10:12:01;19.05;;;9.82;;
25922;SDS011;13725;51.170;4.442;2023-12-07T10:14:30;16.27;;;9.23;;
25922;SDS011;13725;51.170;4.442;2023-12-07T10:16:59;21.17;;;10.02;;
25922;SDS011;13725;51.170;4.442;2023-12-07T10:19:25;19.20;;;9.20;;
25922;SDS011;13725;51.170;4.442;2023-12-07T10:21:52;20.35;;;9.38;;
25922;SDS011;13725;51.170;4.442;2023-12-07T10:24:20;18.55;;;8.90;;
25922;SDS011;13725;51.170;4.442;2023-12-07T10:26:47;18.65;;;8.68;;
25922;SDS011;13725;51.170;4.442;2023-12-07T10:29:14;12.73;;;7.70;;
25922;SDS011;13725;51.170;4.442;2023-12-07T10:31:40;16.40;;;8.50;;
25922;SDS011;13725;51.170;4.442;2023-12-07T10:34:06;18.83;;;9.05;;
25922;SDS011;13725;51.170;4.442;2023-12-07T10:36:38;19.48;;;8.73;;
25922;SDS011;13725;51.170;4.442;2023-12-07T10:39:04;14.65;;;7.65;;
25922;SDS011;13725;51.170;4.442;2023-12-07T10:41:31;18.50;;;8.70;;
25922;SDS011;13725;51.170;4.442;2023-12-07T10:43:59;19.20;;;8.63;;
25922;SDS011;13725;51.170;4.442;2023-12-07T10:46:26;18.98;;;8.77;;
25922;SDS011;13725;51.170;4.442;2023-12-07T10:49:03;13.85;;;7.95;;
25922;SDS011;13725;51.170;4.442;2023-12-07T10:51:33;15.85;;;8.70;;
25922;SDS011;13725;51.170;4.442;2023-12-07T10:54:04;16.73;;;8.10;;
25922;SDS011;13725;51.170;4.442;2023-12-07T10:56:44;13.88;;;7.82;;
25922;SDS011;13725;51.170;4.442;2023-12-07T10:59:11;13.98;;;7.43;;
25922;SDS011;13725;51.170;4.442;2023-12-07T11:01:38;15.30;;;8.55;;
25922;SDS011;13725;51.170;4.442;2023-12-07T11:04:05;15.75;;;7.85;;
25922;SDS011;13725;51.170;4.442;2023-12-07T11:06:35;17.02;;;7.90;;
25922;SDS011;13725;51.170;4.442;2023-12-07T11:09:01;15.85;;;7.97;;
25922;SDS011;13725;51.170;4.442;2023-12-07T11:11:33;16.52;;;7.90;;
25922;SDS011;13725;51.170;4.442;2023-12-07T11:14:08;16.10;;;8.63;;
25922;SDS011;13725;51.170;4.442;2023-12-07T11:16:42;14.23;;;7.60;;
25922;SDS011;13725;51.170;4.442;2023-12-07T11:22:07;17.10;;;7.88;;
25922;SDS011;13725;51.170;4.442;2023-12-07T11:24:51;14.00;;;7.97;;
25922;SDS011;13725;51.170;4.442;2023-12-07T11:27:18;13.57;;;7.38;;
25922;SDS011;13725;51.170;4.442;2023-12-07T11:29:45;22.90;;;7.55;;
25922;SDS011;13725;51.170;4.442;2023-12-07T11:32:13;15.55;;;8.00;;
25922;SDS011;13725;51.170;4.442;2023-12-07T11:34:40;15.10;;;7.50;;
25922;SDS011;13725;51.170;4.442;2023-12-07T11:37:07;13.55;;;6.93;;
25922;SDS011;13725;51.170;4.442;2023-12-07T11:39:35;14.00;;;7.60;;
25922;SDS011;13725;51.170;4.442;2023-12-07T11:44:48;12.68;;;7.38;;
25922;SDS011;13725;51.170;4.442;2023-12-07T11:47:15;18.20;;;7.57;;
25922;SDS011;13725;51.170;4.442;2023-12-07T11:49:43;15.70;;;7.30;;
25922;SDS011;13725;51.170;4.442;2023-12-07T11:52:13;19.23;;;8.05;;
25922;SDS011;13725;51.170;4.442;2023-12-07T11:54:39;17.85;;;8.77;;
25922;SDS011;13725;51.170;4.442;2023-12-07T11:57:07;17.67;;;7.80;;
25922;SDS011;13725;51.170;4.442;2023-12-07T11:59:32;14.63;;;7.82;;
25922;SDS011;13725;51.170;4.442;2023-12-07T12:02:02;16.35;;;7.00;;
25922;SDS011;13725;51.170;4.442;2023-12-07T12:04:29;12.65;;;6.53;;
25922;SDS011;13725;51.170;4.442;2023-12-07T12:06:54;14.73;;;7.55;;
25922;SDS011;13725;51.170;4.442;2023-12-07T12:09:20;14.82;;;7.30;;
25922;SDS011;13725;51.170;4.442;2023-12-07T12:11:46;16.25;;;7.78;;
25922;SDS011;13725;51.170;4.442;2023-12-07T12:14:19;11.68;;;6.57;;
25922;SDS011;13725;51.170;4.442;2023-12-07T12:16:46;22.20;;;7.60;;
25922;SDS011;13725;51.170;4.442;2023-12-07T12:19:12;15.15;;;7.53;;
25922;SDS011;13725;51.170;4.442;2023-12-07T12:21:41;14.27;;;6.95;;
25922;SDS011;13725;51.170;4.442;2023-12-07T12:24:08;15.15;;;7.15;;
25922;SDS011;13725;51.170;4.442;2023-12-07T12:26:36;16.30;;;7.00;;
25922;SDS011;13725;51.170;4.442;2023-12-07T12:29:07;18.20;;;7.15;;
25922;SDS011;13725;51.170;4.442;2023-12-07T12:31:37;12.40;;;7.15;;
25922;SDS011;13725;51.170;4.442;2023-12-07T12:34:07;14.30;;;6.93;;
25922;SDS011;13725;51.170;4.442;2023-12-07T12:36:37;15.07;;;7.45;;
25922;SDS011;13725;51.170;4.442;2023-12-07T12:39:03;11.85;;;6.85;;
25922;SDS011;13725;51.170;4.442;2023-12-07T12:41:34;14.23;;;7.03;;
25922;SDS011;13725;51.170;4.442;2023-12-07T12:44:00;16.98;;;7.80;;
25922;SDS011;13725;51.170;4.442;2023-12-07T12:46:26;14.02;;;7.70;;
25922;SDS011;13725;51.170;4.442;2023-12-07T12:48:59;16.70;;;7.80;;
25922;SDS011;13725;51.170;4.442;2023-12-07T12:51:32;18.42;;;7.50;;
25922;SDS011;13725;51.170;4.442;2023-12-07T12:53:58;17.77;;;7.40;;
25922;SDS011;13725;51.170;4.442;2023-12-07T12:56:25;22.70;;;7.30;;
25922;SDS011;13725;51.170;4.442;2023-12-07T12:58:52;13.35;;;7.13;;
25922;SDS011;13725;51.170;4.442;2023-12-07T13:01:22;17.02;;;7.28;;
25922;SDS011;13725;51.170;4.442;2023-12-07T13:03:48;13.70;;;6.72;;
25922;SDS011;13725;51.170;4.442;2023-12-07T13:06:14;16.42;;;7.50;;
25922;SDS011;13725;51.170;4.442;2023-12-07T13:08:43;15.45;;;7.57;;
25922;SDS011;13725;51.170;4.442;2023-12-07T13:11:09;15.35;;;7.15;;
25922;SDS011;13725;51.170;4.442;2023-12-07T13:13:41;18.70;;;7.78;;
25922;SDS011;13725;51.170;4.442;2023-12-07T13:16:06;20.95;;;8.48;;
25922;SDS011;13725;51.170;4.442;2023-12-07T13:18:32;17.17;;;7.70;;
25922;SDS011;13725;51.170;4.442;2023-12-07T13:20:58;16.13;;;7.72;;
25922;SDS011;13725;51.170;4.442;2023-12-07T13:23:25;17.27;;;7.45;;
25922;SDS011;13725;51.170;4.442;2023-12-07T13:25:52;13.95;;;7.55;;
25922;SDS011;13725;51.170;4.442;2023-12-07T13:28:18;14.90;;;7.75;;
25922;SDS011;13725;51.170;4.442;2023-12-07T13:30:44;15.40;;;7.82;;
25922;SDS011;13725;51.170;4.442;2023-12-07T13:33:10;16.33;;;7.82;;
25922;SDS011;13725;51.170;4.442;2023-12-07T13:35:36;19.05;;;8.65;;
25922;SDS011;13725;51.170;4.442;2023-12-07T13:38:01;15.63;;;7.90;;
25922;SDS011;13725;51.170;4.442;2023-12-07T13:40:27;16.30;;;8.07;;
25922;SDS011;13725;51.170;4.442;2023-12-07T13:42:53;20.23;;;8.00;;
25922;SDS011;13725;51.170;4.442;2023-12-07T13:45:20;17.25;;;8.18;;
25922;SDS011;13725;51.170;4.442;2023-12-07T13:47:45;18.02;;;8.23;;
25922;SDS011;13725;51.170;4.442;2023-12-07T13:50:13;18.40;;;7.90;;
25922;SDS011;13725;51.170;4.442;2023-12-07T13:52:39;17.75;;;7.43;;
25922;SDS011;13725;51.170;4.442;2023-12-07T13:55:05;15.27;;;7.32;;
25922;SDS011;13725;51.170;4.442;2023-12-07T13:57:31;12.75;;;6.93;;
25922;SDS011;13725;51.170;4.442;2023-12-07T13:59:56;15.23;;;7.53;;
25922;SDS011;13725;51.170;4.442;2023-12-07T14:02:22;15.50;;;7.68;;
25922;SDS011;13725;51.170;4.442;2023-12-07T14:04:49;16.77;;;7.97;;
25922;SDS011;13725;51.170;4.442;2023-12-07T14:07:17;18.45;;;8.45;;
25922;SDS011;13725;51.170;4.442;2023-12-07T14:09:45;20.50;;;8.70;;
25922;SDS011;13725;51.170;4.442;2023-12-07T14:12:13;16.17;;;8.00;;
25922;SDS011;13725;51.170;4.442;2023-12-07T14:14:40;14.35;;;8.13;;
25922;SDS011;13725;51.170;4.442;2023-12-07T14:17:11;13.95;;;7.53;;
25922;SDS011;13725;51.170;4.442;2023-12-07T14:19:38;14.38;;;7.13;;
25922;SDS011;13725;51.170;4.442;2023-12-07T14:22:03;17.75;;;8.10;;
25922;SDS011;13725;51.170;4.442;2023-12-07T14:24:29;16.10;;;8.48;;
25922;SDS011;13725;51.170;4.442;2023-12-07T14:26:56;16.33;;;7.70;;
25922;SDS011;13725;51.170;4.442;2023-12-07T14:29:22;17.83;;;8.25;;
25922;SDS011;13725;51.170;4.442;2023-12-07T14:31:51;18.58;;;7.65;;
25922;SDS011;13725;51.170;4.442;2023-12-07T14:34:18;18.23;;;8.07;;
25922;SDS011;13725;51.170;4.442;2023-12-07T14:36:44;15.85;;;7.10;;
25922;SDS011;13725;51.170;4.442;2023-12-07T14:39:13;16.48;;;8.25;;
25922;SDS011;13725;51.170;4.442;2023-12-07T14:41:46;16.77;;;8.80;;
25922;SDS011;13725;51.170;4.442;2023-12-07T14:44:13;18.23;;;8.38;;
25922;SDS011;13725;51.170;4.442;2023-12-07T14:46:43;17.00;;;8.52;;
25922;SDS011;13725;51.170;4.442;2023-12-07T14:49:13;19.40;;;8.05;;